createdAt,value
2019-03-31T00:03:01.559Z,10.45
2019-03-31T00:08:07.354Z,11.38
2019-03-31T00:13:13.626Z,12.13
2019-03-31T00:18:19.550Z,12.13
2019-03-31T00:23:25.347Z,11.68
2019-03-31T00:28:31.133Z,11.25
2019-03-31T00:33:37.097Z,10.97
2019-03-31T00:38:43.357Z,11.50
2019-03-31T00:43:50.153Z,11.08
2019-03-31T00:48:55.978Z,11.45
2019-03-31T00:54:01.695Z,10.55
2019-03-31T00:59:08.041Z,11.03
2019-03-31T01:04:16.757Z,11.08
2019-03-31T01:09:26.563Z,10.25
2019-03-31T01:14:32.655Z,10.37
2019-03-31T01:19:38.692Z,10.27
2019-03-31T01:24:44.590Z,11.18
2019-03-31T01:29:50.486Z,10.20
2019-03-31T01:34:56.559Z,10.63
2019-03-31T01:40:02.478Z,10.45
2019-03-31T01:45:09.972Z,10.33
2019-03-31T01:50:17.921Z,10.78
2019-03-31T01:55:24.168Z,10.60
2019-03-31T02:00:50.491Z,10.98
2019-03-31T02:05:56.390Z,10.60
2019-03-31T02:11:03.016Z,10.40
2019-03-31T02:16:09.227Z,10.80
2019-03-31T02:21:15.222Z,10.63
2019-03-31T02:26:21.471Z,10.90
2019-03-31T02:31:28.189Z,11.07
2019-03-31T02:36:35.658Z,10.70
2019-03-31T02:41:41.568Z,10.82
2019-03-31T02:46:47.442Z,11.40
2019-03-31T02:51:53.086Z,11.45
2019-03-31T02:56:59.090Z,11.65
2019-03-31T03:02:05.381Z,12.47
2019-03-31T03:07:12.999Z,11.50
2019-03-31T03:12:21.758Z,11.40
2019-03-31T03:17:27.964Z,11.15
2019-03-31T03:22:34.066Z,11.45
2019-03-31T03:27:40.322Z,11.68
2019-03-31T03:33:12.662Z,11.23
2019-03-31T03:37:55.575Z,11.33
2019-03-31T03:43:01.904Z,11.63
2019-03-31T03:48:07.699Z,12.77
2019-03-31T03:53:13.477Z,12.90
2019-03-31T03:58:20.069Z,13.00
2019-03-31T04:03:30.436Z,12.37
2019-03-31T04:08:35.936Z,12.73
2019-03-31T04:13:42.014Z,11.93
2019-03-31T04:18:48.283Z,12.28
2019-03-31T04:23:54.391Z,12.10
2019-03-31T04:29:00.487Z,11.87
2019-03-31T04:34:06.917Z,12.00
2019-03-31T04:39:12.597Z,12.37
2019-03-31T04:44:18.388Z,12.63
2019-03-31T04:49:24.195Z,12.40
2019-03-31T04:54:29.984Z,11.83
2019-03-31T04:59:35.814Z,12.23
2019-03-31T05:04:41.888Z,11.53
2019-03-31T05:09:47.583Z,11.63
2019-03-31T05:14:53.769Z,12.30
2019-03-31T05:20:00.861Z,12.73
2019-03-31T05:25:07.020Z,12.37
2019-03-31T05:30:13.225Z,12.63
2019-03-31T05:35:19.733Z,12.60
2019-03-31T05:40:25.420Z,12.43
2019-03-31T05:45:31.120Z,13.30
2019-03-31T05:50:36.814Z,12.60
2019-03-31T05:55:42.949Z,16.50
2019-03-31T06:00:52.211Z,13.87
2019-03-31T06:05:58.170Z,14.43
2019-03-31T06:11:03.966Z,14.50
2019-03-31T06:16:09.754Z,13.53
2019-03-31T06:21:15.484Z,14.30
2019-03-31T06:26:21.582Z,14.28
2019-03-31T06:31:27.638Z,15.13
2019-03-31T06:36:35.429Z,16.35
2019-03-31T06:41:42.471Z,15.90
2019-03-31T06:46:48.166Z,15.67
2019-03-31T06:51:53.850Z,16.07
2019-03-31T06:56:59.761Z,15.00
2019-03-31T07:02:05.658Z,14.40
2019-03-31T07:07:11.376Z,15.30
2019-03-31T07:12:17.578Z,15.45
2019-03-31T07:17:23.295Z,17.03
2019-03-31T07:22:28.977Z,15.03
2019-03-31T07:27:35.183Z,17.02
2019-03-31T07:32:41.307Z,20.12
2019-03-31T07:37:48.047Z,28.25
2019-03-31T07:42:54.210Z,30.02
2019-03-31T07:47:59.955Z,30.45
2019-03-31T07:53:06.052Z,29.70
2019-03-31T07:58:11.829Z,29.63
2019-03-31T08:03:18.196Z,30.82
2019-03-31T08:08:24.335Z,30.80
2019-03-31T08:13:30.160Z,30.77
2019-03-31T08:18:36.358Z,30.72
2019-03-31T08:23:43.176Z,28.57
2019-03-31T08:28:48.969Z,28.32
2019-03-31T08:33:55.272Z,28.75
2019-03-31T08:39:01.347Z,27.85
2019-03-31T08:44:09.311Z,26.35
2019-03-31T08:49:15.214Z,26.05
2019-03-31T08:54:21.127Z,26.12
2019-03-31T08:59:27.847Z,28.75
2019-03-31T09:04:33.548Z,27.95
2019-03-31T09:09:39.661Z,29.02
2019-03-31T09:14:45.493Z,28.00
2019-03-31T09:19:51.676Z,29.92
2019-03-31T09:24:57.451Z,30.85
2019-03-31T09:30:03.235Z,30.62
2019-03-31T09:35:10.136Z,29.35
2019-03-31T09:40:16.247Z,27.07
2019-03-31T09:45:22.525Z,26.12
2019-03-31T09:50:28.317Z,26.42
2019-03-31T09:55:34.663Z,27.00
2019-03-31T10:00:50.709Z,27.45
2019-03-31T10:06:09.920Z,29.15
2019-03-31T10:11:05.493Z,29.42
2019-03-31T10:16:11.663Z,30.70
2019-03-31T10:21:17.501Z,31.05
2019-03-31T10:26:31.865Z,28.73
2019-03-31T10:31:31.199Z,30.75
2019-03-31T10:36:44.412Z,31.25
2019-03-31T10:41:44.872Z,30.95
2019-03-31T10:46:50.973Z,29.60
2019-03-31T10:51:56.791Z,26.25
2019-03-31T10:57:03.044Z,26.80
2019-03-31T11:02:09.222Z,29.02
2019-03-31T11:07:15.322Z,28.92
2019-03-31T11:12:21.112Z,27.93
2019-03-31T11:17:26.904Z,28.38
2019-03-31T11:22:55.666Z,24.20
2019-03-31T11:28:01.555Z,23.77
2019-03-31T11:33:07.942Z,23.62
2019-03-31T11:38:14.232Z,24.95
2019-03-31T11:43:20.113Z,25.82
2019-03-31T11:48:25.887Z,23.73
2019-03-31T11:53:32.201Z,21.80
2019-03-31T11:58:40.977Z,21.70
2019-03-31T12:03:46.845Z,21.93
2019-03-31T12:08:52.681Z,22.98
2019-03-31T12:13:59.664Z,22.75
2019-03-31T12:19:05.835Z,24.57
2019-03-31T12:24:11.802Z,24.90
2019-03-31T12:29:17.991Z,24.50
2019-03-31T12:34:25.620Z,24.18
2019-03-31T12:39:31.655Z,24.12
2019-03-31T12:44:37.553Z,23.60
2019-03-31T12:49:43.440Z,25.00
2019-03-31T12:54:49.231Z,24.30
2019-03-31T12:59:55.698Z,25.82
2019-03-31T13:05:01.620Z,25.00
2019-03-31T13:10:07.739Z,25.77
2019-03-31T13:15:14.154Z,27.77
2019-03-31T13:20:19.955Z,27.07
2019-03-31T13:25:26.827Z,28.38
2019-03-31T13:30:32.618Z,26.70
2019-03-31T13:35:38.540Z,25.62
2019-03-31T13:40:45.168Z,24.70
2019-03-31T13:45:50.959Z,26.70
2019-03-31T13:50:56.840Z,25.97
2019-03-31T13:56:03.207Z,26.65
2019-03-31T14:01:11.810Z,24.80
2019-03-31T14:06:18.113Z,25.92
2019-03-31T14:11:25.076Z,23.92
2019-03-31T14:16:30.896Z,23.20
2019-03-31T14:21:40.109Z,20.20
2019-03-31T14:26:47.696Z,19.65
2019-03-31T14:31:53.629Z,19.48
2019-03-31T14:36:59.893Z,21.62
2019-03-31T14:42:05.777Z,20.73
2019-03-31T14:47:12.046Z,20.02
2019-03-31T14:52:27.219Z,19.57
2019-03-31T14:57:25.752Z,18.42
2019-03-31T15:02:31.518Z,17.23
2019-03-31T15:07:37.277Z,17.17
2019-03-31T15:12:44.333Z,15.93
2019-03-31T15:17:50.981Z,16.90
2019-03-31T15:22:57.124Z,16.17
2019-03-31T15:28:03.742Z,16.15
2019-03-31T15:33:09.869Z,13.98
2019-03-31T15:38:16.113Z,15.18
2019-03-31T15:43:22.029Z,15.83
2019-03-31T15:48:27.870Z,13.45
2019-03-31T15:53:34.390Z,13.03
2019-03-31T15:58:40.199Z,14.00
2019-03-31T16:03:45.975Z,12.45
2019-03-31T16:08:51.218Z,12.73
2019-03-31T16:13:56.532Z,12.68
2019-03-31T16:19:03.973Z,12.73
2019-03-31T16:24:09.357Z,13.20
2019-03-31T16:29:14.967Z,12.60
2019-03-31T16:34:20.619Z,12.45
2019-03-31T16:39:36.886Z,13.07
2019-03-31T16:44:33.366Z,12.73
2019-03-31T16:49:38.913Z,11.97
2019-03-31T16:54:44.223Z,11.12
2019-03-31T16:59:50.184Z,10.53
2019-03-31T17:04:55.444Z,9.78
2019-03-31T17:10:01.227Z,9.95
2019-03-31T17:15:08.032Z,9.55
2019-03-31T17:20:13.492Z,10.30
2019-03-31T17:25:18.731Z,9.05
2019-03-31T17:30:24.331Z,9.35
2019-03-31T17:35:29.569Z,8.93
2019-03-31T17:40:35.181Z,9.15
2019-03-31T17:45:40.718Z,8.83
2019-03-31T17:50:47.520Z,9.03
2019-03-31T17:55:53.047Z,8.60
2019-03-31T18:00:58.286Z,8.15
2019-03-31T18:06:03.531Z,8.40
2019-03-31T18:11:08.766Z,8.13
2019-03-31T18:16:14.408Z,8.33
2019-03-31T18:21:19.665Z,8.30
2019-03-31T18:26:25.989Z,8.05
2019-03-31T18:31:31.229Z,8.23
2019-03-31T18:36:37.339Z,8.08
2019-03-31T18:41:43.008Z,9.18
2019-03-31T18:46:48.179Z,9.55
2019-03-31T18:51:53.464Z,9.13
2019-03-31T18:57:10.950Z,9.48
2019-03-31T19:02:45.624Z,9.20
2019-03-31T19:08:18.884Z,9.33
2019-03-31T19:13:37.540Z,10.23
2019-03-31T19:18:58.474Z,9.40
2019-03-31T19:24:18.473Z,9.68
2019-03-31T19:29:45.421Z,9.83
2019-03-31T19:35:09.716Z,9.87
2019-03-31T19:40:26.666Z,9.50
2019-03-31T19:45:50.940Z,9.90
2019-03-31T19:51:21.604Z,10.47
2019-03-31T19:56:47.499Z,11.77
2019-03-31T20:02:13.010Z,13.17
2019-03-31T20:07:46.485Z,13.28
2019-03-31T20:13:11.121Z,13.65
2019-03-31T20:18:41.979Z,13.15
2019-03-31T20:24:09.281Z,10.75
2019-03-31T20:29:39.328Z,10.05
2019-03-31T20:35:05.428Z,9.00
2019-03-31T20:40:17.644Z,8.93
2019-03-31T20:45:22.814Z,7.93
2019-03-31T20:50:28.063Z,8.00
2019-03-31T20:55:33.681Z,7.65
2019-03-31T21:00:39.740Z,7.10
2019-03-31T21:05:45.336Z,7.93
2019-03-31T21:10:50.871Z,7.40
2019-03-31T21:15:57.493Z,7.37
2019-03-31T21:21:02.686Z,6.90
2019-03-31T21:26:07.861Z,7.53
2019-03-31T21:31:13.035Z,7.27
2019-03-31T21:36:18.304Z,7.72
2019-03-31T21:41:23.725Z,7.10
2019-03-31T21:46:29.932Z,6.53
2019-03-31T21:51:36.575Z,6.47
2019-03-31T21:56:41.736Z,6.10
2019-03-31T22:01:46.885Z,6.30
2019-03-31T22:06:52.037Z,6.17
2019-03-31T22:11:57.462Z,6.07
2019-03-31T22:17:02.733Z,6.13
2019-03-31T22:22:09.577Z,5.15
2019-03-31T22:27:14.797Z,5.17
2019-03-31T22:32:20.485Z,4.50
2019-03-31T22:37:26.127Z,3.93
2019-03-31T22:42:31.914Z,4.47
2019-03-31T22:47:37.806Z,3.97
2019-03-31T22:52:43.670Z,3.80
2019-03-31T22:57:49.375Z,3.47
2019-03-31T23:02:54.531Z,3.20
2019-03-31T23:07:59.613Z,3.60
2019-03-31T23:13:04.765Z,3.58
2019-03-31T23:18:10.214Z,2.97
2019-03-31T23:23:16.510Z,3.00
2019-03-31T23:28:21.688Z,2.73
2019-03-31T23:33:28.047Z,2.50
2019-03-31T23:38:33.513Z,2.70
2019-03-31T23:43:38.663Z,2.83
2019-03-31T23:48:44.074Z,2.63
2019-03-31T23:53:49.217Z,2.40
2019-03-31T23:58:54.501Z,2.83
